createdAt,value
2018-12-30T00:01:47.317Z,8.10
2018-12-30T00:04:26.857Z,6.80
2018-12-30T00:07:07.100Z,8.03
2018-12-30T00:09:46.308Z,9.33
2018-12-30T00:12:13.730Z,8.87
2018-12-30T00:15:01.891Z,9.23
2018-12-30T00:17:48.457Z,8.60
2018-12-30T00:20:34.965Z,7.93
2018-12-30T00:23:21.639Z,9.37
2018-12-30T00:25:48.429Z,8.20
2018-12-30T00:28:35.331Z,9.00
2018-12-30T00:31:21.827Z,7.67
2018-12-30T00:34:08.385Z,8.40
2018-12-30T00:36:54.973Z,8.93
2018-12-30T00:39:41.875Z,8.33
2018-12-30T00:42:28.601Z,8.23
2018-12-30T00:45:16.924Z,8.50
2018-12-30T00:48:03.880Z,6.80
2018-12-30T00:53:23.441Z,8.43
2018-12-30T00:56:10.121Z,8.67
2018-12-30T00:58:56.657Z,9.27
2018-12-30T01:01:24.124Z,6.37
2018-12-30T01:04:04.252Z,8.70
2018-12-30T01:06:44.640Z,9.33
2018-12-30T01:09:24.587Z,9.40
2018-12-30T01:11:51.583Z,8.23
2018-12-30T01:14:18.657Z,10.07
2018-12-30T01:16:45.933Z,9.57
2018-12-30T01:19:12.801Z,8.47
2018-12-30T01:21:59.221Z,8.47
2018-12-30T01:24:45.869Z,8.67
2018-12-30T01:27:32.978Z,8.47
2018-12-30T01:30:19.493Z,7.33
2018-12-30T01:32:46.388Z,7.83
2018-12-30T01:35:32.995Z,6.70
2018-12-30T01:38:19.608Z,7.87
2018-12-30T01:41:06.028Z,8.73
2018-12-30T01:43:52.437Z,8.40
2018-12-30T01:46:39.056Z,8.57
2018-12-30T01:49:25.506Z,8.23
2018-12-30T01:52:12.360Z,8.13
2018-12-30T01:54:59.000Z,8.83
2018-12-30T01:57:45.413Z,10.20
2018-12-30T02:00:31.845Z,10.57
2018-12-30T02:03:11.906Z,9.67
2018-12-30T02:05:51.377Z,9.80
2018-12-30T02:08:31.402Z,10.67
2018-12-30T02:11:10.590Z,11.60
2018-12-30T02:13:50.656Z,10.83
2018-12-30T02:16:29.836Z,9.40
2018-12-30T02:19:09.059Z,11.13
2018-12-30T02:21:49.189Z,8.73
2018-12-30T02:24:29.273Z,9.70
2018-12-30T02:27:09.349Z,9.83
2018-12-30T02:29:49.406Z,10.77
2018-12-30T02:32:16.188Z,10.47
2018-12-30T02:35:02.772Z,9.77
2018-12-30T02:37:49.160Z,10.37
2018-12-30T02:40:35.666Z,7.97
2018-12-30T02:43:22.073Z,8.07
2018-12-30T02:46:08.497Z,8.17
2018-12-30T02:48:54.900Z,9.23
2018-12-30T02:51:50.084Z,9.47
2018-12-30T02:54:30.133Z,9.33
2018-12-30T02:57:16.575Z,9.20
2018-12-30T03:00:05.177Z,8.40
2018-12-30T03:02:51.577Z,9.33
2018-12-30T03:05:40.001Z,8.63
2018-12-30T03:08:26.396Z,8.97
2018-12-30T03:11:13.217Z,8.43
2018-12-30T03:13:59.879Z,7.03
2018-12-30T03:16:46.293Z,7.13
2018-12-30T03:19:32.686Z,7.20
2018-12-30T03:22:19.318Z,6.67
2018-12-30T03:25:05.842Z,6.37
2018-12-30T03:27:52.241Z,5.87
2018-12-30T03:30:38.765Z,5.30
2018-12-30T03:33:25.420Z,5.40
2018-12-30T03:36:11.977Z,5.40
2018-12-30T03:38:58.365Z,4.93
2018-12-30T03:41:44.760Z,4.67
2018-12-30T03:44:31.193Z,4.53
2018-12-30T03:47:17.701Z,4.07
2018-12-30T03:50:04.230Z,3.93
2018-12-30T03:52:50.612Z,4.13
2018-12-30T03:55:37.472Z,4.17
2018-12-30T03:58:24.141Z,3.77
2018-12-30T04:01:10.545Z,3.80
2018-12-30T04:03:50.158Z,4.20
2018-12-30T04:06:17.363Z,4.43
2018-12-30T04:09:04.925Z,3.70
2018-12-30T04:11:51.609Z,4.43
2018-12-30T04:14:38.049Z,4.60
2018-12-30T04:17:24.554Z,4.50
2018-12-30T04:20:11.077Z,4.70
2018-12-30T04:22:57.477Z,5.57
2018-12-30T04:25:43.862Z,5.33
2018-12-30T04:28:30.258Z,4.90
2018-12-30T04:31:16.648Z,5.00
2018-12-30T04:34:03.141Z,5.90
2018-12-30T04:36:49.661Z,5.07
2018-12-30T04:39:16.432Z,5.80
2018-12-30T04:42:02.977Z,5.87
2018-12-30T04:44:49.414Z,7.10
2018-12-30T04:47:35.832Z,6.77
2018-12-30T04:50:22.241Z,6.43
2018-12-30T04:53:08.902Z,7.07
2018-12-30T04:55:55.293Z,6.47
2018-12-30T04:58:41.940Z,6.67
2018-12-30T05:01:28.336Z,7.17
2018-12-30T05:04:07.757Z,6.80
2018-12-30T05:06:46.945Z,5.57
2018-12-30T05:09:27.016Z,7.20
2018-12-30T05:12:07.128Z,6.90
2018-12-30T05:14:46.642Z,7.53
2018-12-30T05:17:26.671Z,7.33
2018-12-30T05:20:06.975Z,8.10
2018-12-30T05:22:46.585Z,7.07
2018-12-30T05:25:27.081Z,7.33
2018-12-30T05:28:06.859Z,6.10
2018-12-30T05:30:46.045Z,6.60
2018-12-30T05:33:25.254Z,8.00
2018-12-30T05:36:04.461Z,7.30
2018-12-30T05:38:31.257Z,6.47
2018-12-30T05:41:17.674Z,7.37
2018-12-30T05:44:04.074Z,6.20
2018-12-30T05:46:50.485Z,6.90
2018-12-30T05:49:37.133Z,6.97
2018-12-30T05:52:23.535Z,6.63
2018-12-30T05:55:10.050Z,6.50
2018-12-30T05:57:56.461Z,7.07
2018-12-30T06:00:43.478Z,5.30
2018-12-30T06:03:23.085Z,5.47
2018-12-30T06:06:02.545Z,5.73
2018-12-30T06:08:42.640Z,5.87
2018-12-30T06:11:22.621Z,6.10
2018-12-30T06:14:01.974Z,5.97
2018-12-30T06:16:42.104Z,5.10
2018-12-30T06:19:21.272Z,5.87
2018-12-30T06:22:01.377Z,5.00
2018-12-30T06:24:41.457Z,5.83
2018-12-30T06:27:21.516Z,5.67
2018-12-30T06:30:00.725Z,5.20
2018-12-30T06:32:40.997Z,5.20
2018-12-30T06:35:20.785Z,5.67
2018-12-30T06:38:00.147Z,5.57
2018-12-30T06:40:39.892Z,6.20
2018-12-30T06:43:19.992Z,5.53
2018-12-30T06:45:59.161Z,6.03
2018-12-30T06:48:39.494Z,6.03
2018-12-30T06:51:19.500Z,4.60
2018-12-30T06:53:59.577Z,5.40
2018-12-30T06:56:39.749Z,5.37
2018-12-30T06:59:19.746Z,5.57
2018-12-30T07:01:59.758Z,5.60
2018-12-30T07:04:38.993Z,5.27
2018-12-30T07:07:19.285Z,5.33
2018-12-30T07:09:59.160Z,5.27
2018-12-30T07:12:39.122Z,4.97
2018-12-30T07:15:19.253Z,4.50
2018-12-30T07:17:46.300Z,4.80
2018-12-30T07:20:32.941Z,5.10
2018-12-30T07:23:19.451Z,4.40
2018-12-30T07:26:06.570Z,5.03
2018-12-30T07:28:53.177Z,5.10
2018-12-30T07:31:39.701Z,5.20
2018-12-30T07:34:26.216Z,5.00
2018-12-30T07:37:12.977Z,5.70
2018-12-30T07:39:59.381Z,4.83
2018-12-30T07:42:45.819Z,5.63
2018-12-30T07:45:32.330Z,5.40
2018-12-30T07:48:18.742Z,4.83
2018-12-30T07:51:05.266Z,4.40
2018-12-30T07:53:51.949Z,4.40
2018-12-30T07:56:38.372Z,4.50
2018-12-30T07:59:06.138Z,4.50
2018-12-30T08:01:52.817Z,4.77
2018-12-30T08:04:19.984Z,5.20
2018-12-30T08:07:06.589Z,4.63
2018-12-30T08:09:52.994Z,4.73
2018-12-30T08:12:39.404Z,4.50
2018-12-30T08:15:25.808Z,4.47
2018-12-30T08:18:12.483Z,6.23
2018-12-30T08:20:59.217Z,5.00
2018-12-30T08:23:45.633Z,5.17
2018-12-30T08:26:32.320Z,3.90
2018-12-30T08:29:18.830Z,4.00
2018-12-30T08:32:05.234Z,3.93
2018-12-30T08:34:51.625Z,3.90
2018-12-30T08:37:38.277Z,4.10
2018-12-30T08:40:24.673Z,3.37
2018-12-30T08:43:11.559Z,4.40
2018-12-30T08:45:57.973Z,3.97
2018-12-30T08:48:44.624Z,3.77
2018-12-30T08:51:31.363Z,4.03
2018-12-30T08:54:17.889Z,4.70
2018-12-30T08:57:04.477Z,3.90
2018-12-30T08:59:50.903Z,3.90
2018-12-30T09:02:37.416Z,4.33
2018-12-30T09:05:17.230Z,3.63
2018-12-30T09:07:57.313Z,3.77
2018-12-30T09:10:36.658Z,4.50
2018-12-30T09:13:16.867Z,3.80
2018-12-30T09:15:56.916Z,4.50
2018-12-30T09:18:36.118Z,4.27
2018-12-30T09:21:16.119Z,3.77
2018-12-30T09:23:42.909Z,4.17
2018-12-30T09:26:29.321Z,4.63
2018-12-30T09:29:15.825Z,5.83
2018-12-30T09:32:02.358Z,5.03
2018-12-30T09:34:48.777Z,4.57
2018-12-30T09:37:35.181Z,4.03
2018-12-30T09:40:21.822Z,3.93
2018-12-30T09:43:08.777Z,3.47
2018-12-30T09:45:55.501Z,3.37
2018-12-30T09:48:41.964Z,4.43
2018-12-30T09:51:28.352Z,4.33
2018-12-30T09:54:14.965Z,2.77
2018-12-30T09:57:01.370Z,4.40
2018-12-30T09:59:47.908Z,4.00
2018-12-30T10:02:34.611Z,3.50
2018-12-30T10:05:14.566Z,3.90
2018-12-30T10:07:54.577Z,3.03
2018-12-30T10:16:35.123Z,2.87
2018-12-30T10:19:14.972Z,2.77
2018-12-30T10:21:55.042Z,2.70
2018-12-30T10:24:34.304Z,2.80
2018-12-30T10:27:14.252Z,2.37
2018-12-30T10:29:54.393Z,2.70
2018-12-30T10:32:34.545Z,3.30
2018-12-30T10:35:14.668Z,3.10
2018-12-30T10:37:41.436Z,2.70
2018-12-30T10:40:27.950Z,2.67
2018-12-30T10:43:14.346Z,2.93
2018-12-30T10:46:00.997Z,3.17
2018-12-30T10:48:47.413Z,3.53
2018-12-30T10:51:33.937Z,3.50
2018-12-30T10:54:00.960Z,3.80
2018-12-30T10:56:47.421Z,4.30
2018-12-30T10:59:34.187Z,4.73
2018-12-30T11:02:20.703Z,4.47
2018-12-30T11:05:00.026Z,3.80
2018-12-30T11:07:40.080Z,3.60
2018-12-30T11:10:20.397Z,3.37
2018-12-30T11:13:00.113Z,3.73
2018-12-30T11:15:40.181Z,3.40
2018-12-30T11:18:19.372Z,3.47
2018-12-30T11:20:58.601Z,3.80
2018-12-30T11:23:37.778Z,3.37
2018-12-30T11:26:17.973Z,3.03
2018-12-30T11:28:58.062Z,3.30
2018-12-30T11:31:37.979Z,3.10
2018-12-30T11:34:17.826Z,3.20
2018-12-30T11:36:57.929Z,2.90
2018-12-30T11:39:37.789Z,3.43
2018-12-30T11:42:17.981Z,2.63
2018-12-30T11:44:58.356Z,2.47
2018-12-30T11:47:38.904Z,2.22
2018-12-30T11:50:18.653Z,2.67
2018-12-30T11:52:58.840Z,2.53
2018-12-30T11:55:38.770Z,2.63
2018-12-30T11:58:18.952Z,3.13
2018-12-30T12:00:58.939Z,2.20
2018-12-30T12:03:38.993Z,3.20
2018-12-30T12:06:05.870Z,2.80
2018-12-30T12:08:52.371Z,3.10
2018-12-30T12:11:38.863Z,3.27
2018-12-30T12:14:25.609Z,2.70
2018-12-30T12:17:12.245Z,2.90
2018-12-30T12:19:59.158Z,3.10
2018-12-30T12:22:45.812Z,3.30
2018-12-30T12:25:32.205Z,3.50
2018-12-30T12:28:18.641Z,2.73
2018-12-30T12:31:05.045Z,3.13
2018-12-30T12:33:52.074Z,3.00
2018-12-30T12:36:18.828Z,2.83
2018-12-30T12:39:05.738Z,3.10
2018-12-30T12:41:52.161Z,3.03
2018-12-30T12:44:39.074Z,3.67
2018-12-30T12:47:25.724Z,3.07
2018-12-30T12:50:12.129Z,3.20
2018-12-30T12:52:58.522Z,2.90
2018-12-30T12:55:45.101Z,3.47
2018-12-30T12:58:31.533Z,3.57
2018-12-30T13:01:18.054Z,4.10
2018-12-30T13:03:57.318Z,3.40
2018-12-30T13:06:37.701Z,4.00
2018-12-30T13:09:17.494Z,3.63
2018-12-30T13:11:56.755Z,3.67
2018-12-30T13:14:36.911Z,3.70
2018-12-30T13:17:17.085Z,3.83
2018-12-30T13:19:57.228Z,3.80
2018-12-30T13:22:37.229Z,3.60
2018-12-30T13:25:16.441Z,3.93
2018-12-30T13:27:56.600Z,3.47
2018-12-30T13:30:36.641Z,3.50
2018-12-30T13:33:16.673Z,2.93
2018-12-30T13:35:56.790Z,3.63
2018-12-30T13:38:36.794Z,4.10
2018-12-30T13:41:16.937Z,3.30
2018-12-30T13:43:56.894Z,3.67
2018-12-30T13:46:36.997Z,2.70
2018-12-30T13:49:17.047Z,3.13
2018-12-30T13:51:56.362Z,3.20
2018-12-30T13:54:35.534Z,3.30
2018-12-30T13:57:15.666Z,3.07
2018-12-30T13:59:55.118Z,3.73
2018-12-30T14:02:35.170Z,3.27
2018-12-30T14:05:02.333Z,3.80
2018-12-30T14:07:29.157Z,3.50
2018-12-30T14:10:15.654Z,3.53
2018-12-30T14:13:02.178Z,3.40
2018-12-30T14:15:50.989Z,3.30
2018-12-30T14:18:36.954Z,4.00
2018-12-30T14:21:23.606Z,3.90
2018-12-30T14:24:10.021Z,4.20
2018-12-30T14:26:59.908Z,4.10
2018-12-30T14:29:45.133Z,4.00
2018-12-30T14:32:31.570Z,3.70
2018-12-30T14:35:18.060Z,3.53
2018-12-30T14:38:04.789Z,4.80
2018-12-30T14:40:51.210Z,3.90
2018-12-30T14:43:38.001Z,4.93
2018-12-30T14:46:24.395Z,4.43
2018-12-30T14:49:10.794Z,4.80
2018-12-30T14:51:57.460Z,4.37
2018-12-30T14:54:43.965Z,5.43
2018-12-30T14:57:30.370Z,5.30
2018-12-30T15:00:16.822Z,4.87
2018-12-30T15:03:03.325Z,5.43
2018-12-30T15:05:42.799Z,5.40
2018-12-30T15:08:22.745Z,5.20
2018-12-30T15:11:02.782Z,4.80
2018-12-30T15:13:42.866Z,5.33
2018-12-30T15:16:22.117Z,5.03
2018-12-30T15:19:02.174Z,5.33
2018-12-30T15:21:42.274Z,5.53
2018-12-30T15:24:21.693Z,5.50
2018-12-30T15:27:01.494Z,5.40
2018-12-30T15:29:41.630Z,5.80
2018-12-30T15:32:21.514Z,5.50
2018-12-30T15:35:00.717Z,6.20
2018-12-30T15:37:40.978Z,5.53
2018-12-30T15:40:20.910Z,5.77
2018-12-30T15:43:00.973Z,5.63
2018-12-30T15:45:41.022Z,6.10
2018-12-30T15:48:20.691Z,5.70
2018-12-30T15:51:00.759Z,5.30
2018-12-30T15:53:40.891Z,6.23
2018-12-30T15:56:20.921Z,6.13
2018-12-30T15:59:00.230Z,6.37
2018-12-30T16:01:40.206Z,6.43
2018-12-30T16:04:20.205Z,6.10
2018-12-30T16:06:59.421Z,6.47
2018-12-30T16:09:39.553Z,6.80
2018-12-30T16:12:19.923Z,7.17
2018-12-30T16:14:59.846Z,6.90
2018-12-30T16:17:39.930Z,7.23
2018-12-30T16:20:20.044Z,6.90
2018-12-30T16:22:59.933Z,7.53
2018-12-30T16:25:39.475Z,7.70
2018-12-30T16:28:19.993Z,7.27
2018-12-30T16:30:59.729Z,7.63
2018-12-30T16:33:39.720Z,7.03
2018-12-30T16:39:25.334Z,8.27
2018-12-30T16:42:05.211Z,7.80
2018-12-30T16:44:45.211Z,8.90
2018-12-30T16:47:25.520Z,8.03
2018-12-30T16:50:05.302Z,8.03
2018-12-30T16:52:45.487Z,8.37
2018-12-30T16:55:25.711Z,7.70
2018-12-30T16:58:05.769Z,8.57
2018-12-30T17:00:45.034Z,8.00
2018-12-30T17:03:25.048Z,8.43
2018-12-30T17:06:05.194Z,7.90
2018-12-30T17:08:44.444Z,8.47
2018-12-30T17:11:24.794Z,8.47
2018-12-30T17:14:04.634Z,8.20
2018-12-30T17:16:43.781Z,8.13
2018-12-30T17:19:24.379Z,7.97
2018-12-30T17:22:04.585Z,7.80
2018-12-30T17:24:44.554Z,7.60
2018-12-30T17:27:24.733Z,8.50
2018-12-30T17:30:04.871Z,8.40
2018-12-30T17:32:44.995Z,7.63
2018-12-30T17:35:24.909Z,7.37
2018-12-30T17:38:04.837Z,8.23
2018-12-30T17:40:38.570Z,8.03
2018-12-30T17:43:26.407Z,7.83
2018-12-30T17:46:18.234Z,7.80
2018-12-30T17:49:01.179Z,11.77
2018-12-30T17:51:47.590Z,7.97
2018-12-30T17:54:34.363Z,7.20
2018-12-30T17:57:20.790Z,7.37
2018-12-30T18:00:07.306Z,7.83
2018-12-30T18:02:54.680Z,8.37
2018-12-30T18:05:35.203Z,7.63
2018-12-30T18:08:15.492Z,8.40
2018-12-30T18:10:55.353Z,7.93
2018-12-30T18:13:35.342Z,7.27
2018-12-30T18:16:02.206Z,9.33
2018-12-30T18:18:29.049Z,7.73
2018-12-30T18:21:15.682Z,8.33
2018-12-30T18:24:02.173Z,8.50
2018-12-30T18:26:48.783Z,8.73
2018-12-30T18:29:35.190Z,9.30
2018-12-30T18:32:21.834Z,8.60
2018-12-30T18:35:08.598Z,9.30
2018-12-30T18:37:55.286Z,10.00
2018-12-30T18:40:22.653Z,11.90
2018-12-30T18:42:49.461Z,9.60
2018-12-30T18:45:35.958Z,9.73
2018-12-30T18:48:22.732Z,10.13
2018-12-30T18:50:50.138Z,10.97
2018-12-30T18:53:17.426Z,8.83
2018-12-30T18:56:06.880Z,9.70
2018-12-30T18:58:52.245Z,9.07
2018-12-30T19:01:38.775Z,9.23
2018-12-30T19:04:18.709Z,9.60
2018-12-30T19:06:58.732Z,9.20
2018-12-30T19:09:39.040Z,10.50
2018-12-30T19:12:24.986Z,9.80
2018-12-30T19:17:52.104Z,10.00
2018-12-30T19:20:32.253Z,13.65
2018-12-30T19:22:59.416Z,10.07
2018-12-30T19:25:46.088Z,9.90
2018-12-30T19:28:32.490Z,10.23
2018-12-30T19:31:19.170Z,9.83
2018-12-30T19:34:05.841Z,9.83
2018-12-30T19:36:52.893Z,10.23
2018-12-30T19:39:39.398Z,8.70
2018-12-30T19:42:26.090Z,9.63
2018-12-30T19:45:12.516Z,9.90
2018-12-30T19:47:59.154Z,9.87
2018-12-30T19:50:45.751Z,9.70
2018-12-30T19:53:32.177Z,9.53
2018-12-30T19:56:22.054Z,10.30
2018-12-30T19:59:07.498Z,10.00
2018-12-30T20:01:53.930Z,10.10
2018-12-30T20:04:40.408Z,10.03
2018-12-30T20:07:14.980Z,9.77
2018-12-30T20:09:55.279Z,10.10
2018-12-30T20:12:35.308Z,9.93
2018-12-30T20:15:15.424Z,9.70
2018-12-30T20:17:55.482Z,9.30
2018-12-30T20:20:35.602Z,11.53
2018-12-30T20:23:14.836Z,10.60
2018-12-30T20:25:55.058Z,10.33
2018-12-30T20:28:35.025Z,10.60
2018-12-30T20:31:14.626Z,11.13
2018-12-30T20:33:54.756Z,11.30
2018-12-30T20:36:34.583Z,10.97
2018-12-30T20:39:14.584Z,10.83
2018-12-30T20:41:54.157Z,11.90
2018-12-30T20:44:34.110Z,12.57
2018-12-30T20:47:14.326Z,12.50
2018-12-30T20:49:53.950Z,14.13
2018-12-30T20:52:34.002Z,13.13
2018-12-30T20:55:14.243Z,12.60
2018-12-30T20:57:54.106Z,12.50
2018-12-30T21:00:34.043Z,11.57
2018-12-30T21:03:00.861Z,12.10
2018-12-30T21:05:40.623Z,13.60
2018-12-30T21:08:20.698Z,13.63
2018-12-30T21:11:00.851Z,12.90
2018-12-30T21:13:40.444Z,11.93
2018-12-30T21:16:20.153Z,12.47
2018-12-30T21:19:02.025Z,12.30
2018-12-30T21:21:29.178Z,13.93
2018-12-30T21:24:15.911Z,13.80
2018-12-30T21:27:02.666Z,13.13
2018-12-30T21:29:29.434Z,11.53
2018-12-30T21:31:56.543Z,13.27
2018-12-30T21:34:23.540Z,13.27
2018-12-30T21:37:10.187Z,13.80
2018-12-30T21:39:57.146Z,13.73
2018-12-30T21:42:24.152Z,13.93
2018-12-30T21:45:10.815Z,13.40
2018-12-30T21:47:57.300Z,12.87
2018-12-30T21:50:43.776Z,12.77
2018-12-30T21:53:30.415Z,13.27
2018-12-30T21:56:17.295Z,13.80
2018-12-30T21:59:03.802Z,13.00
2018-12-30T22:01:50.177Z,13.77
2018-12-30T22:04:29.334Z,13.90
2018-12-30T22:07:09.465Z,13.40
2018-12-30T22:09:49.389Z,13.53
2018-12-30T22:12:29.422Z,13.20
2018-12-30T22:15:08.697Z,14.07
2018-12-30T22:17:49.092Z,14.00
2018-12-30T22:20:29.151Z,13.53
2018-12-30T22:23:09.016Z,14.90
2018-12-30T22:25:49.120Z,12.30
2018-12-30T22:28:29.080Z,14.50
2018-12-30T22:31:09.141Z,13.80
2018-12-30T22:33:49.211Z,13.60
2018-12-30T22:36:29.495Z,14.00
2018-12-30T22:39:08.989Z,14.50
2018-12-30T22:41:48.599Z,14.77
2018-12-30T22:44:28.489Z,13.27
2018-12-30T22:47:08.549Z,13.17
2018-12-30T22:49:48.756Z,13.40
2018-12-30T22:52:28.878Z,13.23
2018-12-30T22:55:08.670Z,13.63
2018-12-30T22:57:48.131Z,13.30
2018-12-30T23:00:47.551Z,13.03
2018-12-30T23:03:27.251Z,13.10
2018-12-30T23:06:07.185Z,12.87
2018-12-30T23:08:50.061Z,13.23
2018-12-30T23:11:29.209Z,13.30
2018-12-30T23:14:09.543Z,12.23
2018-12-30T23:16:49.663Z,13.17
2018-12-30T23:19:29.698Z,12.30
2018-12-30T23:22:09.498Z,13.00
2018-12-30T23:24:48.670Z,13.27
2018-12-30T23:27:29.058Z,12.23
2018-12-30T23:30:08.822Z,13.40
2018-12-30T23:32:48.978Z,12.13
2018-12-30T23:35:28.947Z,13.43
2018-12-30T23:38:08.943Z,13.50
2018-12-30T23:40:49.076Z,12.20
2018-12-30T23:43:16.141Z,11.80
2018-12-30T23:46:02.631Z,12.13
2018-12-30T23:48:49.034Z,12.50
2018-12-30T23:51:35.662Z,12.50
2018-12-30T23:54:22.202Z,11.97
2018-12-30T23:57:08.937Z,12.43
2018-12-30T23:59:55.331Z,12.97
